createdAt,value
2018-09-28T00:00:54.809Z,5.07
2018-09-28T00:03:24.707Z,5.67
2018-09-28T00:05:54.722Z,5.40
2018-09-28T00:08:24.626Z,6.73
2018-09-28T00:10:54.486Z,6.60
2018-09-28T00:13:24.421Z,6.30
2018-09-28T00:15:54.268Z,6.97
2018-09-28T00:18:24.121Z,5.60
2018-09-28T00:20:53.933Z,5.63
2018-09-28T00:23:23.681Z,5.77
2018-09-28T00:25:53.589Z,7.27
2018-09-28T00:28:23.400Z,7.43
2018-09-28T00:30:53.279Z,6.00
2018-09-28T00:33:23.057Z,6.23
2018-09-28T00:35:52.839Z,7.07
2018-09-28T00:38:22.717Z,5.57
2018-09-28T00:40:52.361Z,7.00
2018-09-28T00:43:22.236Z,7.27
2018-09-28T00:45:52.081Z,6.03
2018-09-28T00:48:21.915Z,8.70
2018-09-28T00:50:51.722Z,6.07
2018-09-28T00:53:21.511Z,5.90
2018-09-28T00:55:51.317Z,7.77
2018-09-28T00:58:21.221Z,7.37
2018-09-28T01:00:51.071Z,5.70
2018-09-28T01:03:20.964Z,5.13
2018-09-28T01:05:50.742Z,5.47
2018-09-28T01:08:20.631Z,6.33
2018-09-28T01:10:50.434Z,5.83
2018-09-28T01:13:20.301Z,5.77
2018-09-28T01:15:50.117Z,8.07
2018-09-28T01:18:19.951Z,6.30
2018-09-28T01:20:49.750Z,5.83
2018-09-28T01:23:19.650Z,5.27
2018-09-28T01:25:49.539Z,6.33
2018-09-28T01:28:19.361Z,4.70
2018-09-28T01:30:49.182Z,6.20
2018-09-28T01:33:19.115Z,4.97
2018-09-28T01:35:49.058Z,9.40
2018-09-28T01:38:18.919Z,6.27
2018-09-28T01:40:48.787Z,5.03
2018-09-28T01:43:18.703Z,6.50
2018-09-28T01:45:48.541Z,5.67
2018-09-28T01:48:18.338Z,6.90
2018-09-28T01:50:48.178Z,5.77
2018-09-28T01:53:18.057Z,5.63
2018-09-28T01:55:47.854Z,6.73
2018-09-28T01:58:17.716Z,6.07
2018-09-28T02:00:47.572Z,6.93
2018-09-28T02:03:17.397Z,7.47
2018-09-28T02:05:47.325Z,8.50
2018-09-28T02:08:17.111Z,7.80
2018-09-28T02:10:47.019Z,8.27
2018-09-28T02:13:16.917Z,8.13
2018-09-28T02:15:46.843Z,8.73
2018-09-28T02:18:16.759Z,6.50
2018-09-28T02:20:46.580Z,9.67
2018-09-28T02:23:16.358Z,7.57
2018-09-28T02:25:46.214Z,6.83
2018-09-28T02:28:16.058Z,7.87
2018-09-28T02:30:45.883Z,8.97
2018-09-28T02:33:15.783Z,7.20
2018-09-28T02:35:45.679Z,9.23
2018-09-28T02:38:15.546Z,7.53
2018-09-28T02:40:45.733Z,9.47
2018-09-28T02:43:15.645Z,9.37
2018-09-28T02:45:45.521Z,8.70
2018-09-28T02:48:15.453Z,8.67
2018-09-28T02:50:45.415Z,7.20
2018-09-28T02:53:18.604Z,7.20
2018-09-28T02:55:49.781Z,7.80
2018-09-28T02:58:19.592Z,5.73
2018-09-28T03:00:49.514Z,5.73
2018-09-28T03:03:19.406Z,7.73
2018-09-28T03:05:49.329Z,7.53
2018-09-28T03:08:19.192Z,5.80
2018-09-28T03:10:49.165Z,8.23
2018-09-28T03:13:19.041Z,7.00
2018-09-28T03:15:48.900Z,7.10
2018-09-28T03:18:18.737Z,5.13
2018-09-28T03:20:48.611Z,7.93
2018-09-28T03:23:18.525Z,7.67
2018-09-28T03:25:48.396Z,6.77
2018-09-28T03:28:18.235Z,5.33
2018-09-28T03:30:48.163Z,4.30
2018-09-28T03:33:17.955Z,5.40
2018-09-28T03:35:47.782Z,6.93
2018-09-28T03:38:17.603Z,5.90
2018-09-28T03:40:47.482Z,6.00
2018-09-28T03:43:17.375Z,7.93
2018-09-28T03:45:47.183Z,6.10
2018-09-28T03:48:17.092Z,5.10
2018-09-28T03:50:46.875Z,6.80
2018-09-28T03:53:16.724Z,4.67
2018-09-28T03:55:46.526Z,6.25
2018-09-28T03:58:16.363Z,5.43
2018-09-28T04:00:46.220Z,5.10
2018-09-28T04:03:15.962Z,6.07
2018-09-28T04:05:45.821Z,4.77
2018-09-28T04:08:15.691Z,6.43
2018-09-28T04:10:45.528Z,5.23
2018-09-28T04:13:15.281Z,6.83
2018-09-28T04:15:45.035Z,4.37
2018-09-28T04:18:14.752Z,7.30
2018-09-28T04:20:44.541Z,5.97
2018-09-28T04:23:14.456Z,5.47
2018-09-28T04:25:44.219Z,6.27
2018-09-28T04:28:14.028Z,4.43
2018-09-28T04:30:43.814Z,7.87
2018-09-28T04:33:13.567Z,6.07
2018-09-28T04:35:44.205Z,7.93
2018-09-28T04:38:14.086Z,6.03
2018-09-28T04:40:43.943Z,6.03
2018-09-28T04:43:13.794Z,7.87
2018-09-28T04:45:43.707Z,11.73
2018-09-28T04:48:13.481Z,6.13
2018-09-28T04:50:43.426Z,7.20
2018-09-28T04:53:13.196Z,9.57
2018-09-28T04:55:43.130Z,6.40
2018-09-28T04:58:12.939Z,8.37
2018-09-28T05:00:42.786Z,7.63
2018-09-28T05:03:12.653Z,9.20
2018-09-28T05:05:42.505Z,6.53
2018-09-28T05:08:12.227Z,7.97
2018-09-28T05:10:42.099Z,7.87
2018-09-28T05:13:12.073Z,9.30
2018-09-28T05:15:41.821Z,11.80
2018-09-28T05:18:11.746Z,8.47
2018-09-28T05:20:41.562Z,7.47
2018-09-28T05:23:11.323Z,6.40
2018-09-28T05:25:41.163Z,10.53
2018-09-28T05:28:10.924Z,8.20
2018-09-28T05:30:44.976Z,7.67
2018-09-28T05:33:10.589Z,7.97
2018-09-28T05:35:40.406Z,10.70
2018-09-28T05:38:10.433Z,10.30
2018-09-28T05:40:40.724Z,7.93
2018-09-28T05:43:10.632Z,6.57
2018-09-28T05:45:40.457Z,8.93
2018-09-28T05:48:10.275Z,8.00
2018-09-28T05:50:40.125Z,7.70
2018-09-28T05:53:09.961Z,7.67
2018-09-28T05:55:39.768Z,9.30
2018-09-28T05:58:14.643Z,10.17
2018-09-28T06:00:49.445Z,11.37
2018-09-28T06:03:20.772Z,10.20
2018-09-28T06:05:55.831Z,8.73
2018-09-28T06:08:25.668Z,11.23
2018-09-28T06:10:55.537Z,12.10
2018-09-28T06:13:25.321Z,10.43
2018-09-28T06:15:55.174Z,11.97
2018-09-28T06:18:25.872Z,24.73
2018-09-28T06:20:55.776Z,17.00
2018-09-28T06:23:25.615Z,16.23
2018-09-28T06:25:55.469Z,10.73
2018-09-28T06:28:25.309Z,9.00
2018-09-28T06:30:55.193Z,11.40
2018-09-28T06:33:25.055Z,12.33
2018-09-28T06:35:55.047Z,11.30
2018-09-28T06:38:24.978Z,14.83
2018-09-28T06:40:54.802Z,16.53
2018-09-28T06:43:24.666Z,15.37
2018-09-28T06:45:54.721Z,14.30
2018-09-28T06:48:24.633Z,17.60
2018-09-28T06:50:54.540Z,20.43
2018-09-28T06:53:24.417Z,15.10
2018-09-28T06:55:54.339Z,18.57
2018-09-28T06:58:24.225Z,13.93
2018-09-28T07:00:54.089Z,17.17
2018-09-28T07:03:23.919Z,14.90
2018-09-28T07:05:54.039Z,15.77
2018-09-28T07:08:23.885Z,13.83
2018-09-28T07:10:54.257Z,12.40
2018-09-28T07:13:24.065Z,17.23
2018-09-28T07:15:53.917Z,13.83
2018-09-28T07:18:23.980Z,22.30
2018-09-28T07:20:53.734Z,19.47
2018-09-28T07:23:23.601Z,16.40
2018-09-28T07:25:53.533Z,21.10
2018-09-28T07:28:23.538Z,13.57
2018-09-28T07:30:53.413Z,17.33
2018-09-28T07:33:23.706Z,15.47
2018-09-28T07:35:53.878Z,23.23
2018-09-28T07:38:23.736Z,31.70
2018-09-28T07:40:53.678Z,16.00
2018-09-28T07:43:23.871Z,14.70
2018-09-28T07:45:53.833Z,15.27
2018-09-28T07:48:23.722Z,13.03
2018-09-28T07:50:53.481Z,12.27
2018-09-28T07:53:23.302Z,10.57
2018-09-28T07:55:53.245Z,17.07
2018-09-28T07:58:23.050Z,10.13
2018-09-28T08:00:52.911Z,8.33
2018-09-28T08:03:28.117Z,11.77
2018-09-28T08:05:59.486Z,9.17
2018-09-28T08:08:29.321Z,8.80
2018-09-28T08:10:59.193Z,9.70
2018-09-28T08:13:29.102Z,14.93
2018-09-28T08:15:58.973Z,11.23
2018-09-28T08:18:28.855Z,12.43
2018-09-28T08:20:58.713Z,11.23
2018-09-28T08:23:28.506Z,10.77
2018-09-28T08:25:58.443Z,11.90
2018-09-28T08:28:28.385Z,10.40
2018-09-28T08:30:58.285Z,15.43
2018-09-28T08:33:28.255Z,11.73
2018-09-28T08:35:58.097Z,12.83
2018-09-28T08:38:28.120Z,11.90
2018-09-28T08:40:58.070Z,9.07
2018-09-28T08:43:27.976Z,12.33
2018-09-28T08:45:57.817Z,11.13
2018-09-28T08:48:27.827Z,15.20
2018-09-28T08:50:57.705Z,8.63
2018-09-28T08:53:27.637Z,9.40
2018-09-28T08:55:57.441Z,6.57
2018-09-28T08:58:27.381Z,11.73
2018-09-28T09:00:57.229Z,8.63
2018-09-28T09:03:27.138Z,10.87
2018-09-28T09:05:57.061Z,8.60
2018-09-28T09:08:27.007Z,9.63
2018-09-28T09:10:56.851Z,12.50
2018-09-28T09:13:26.719Z,7.33
2018-09-28T09:15:56.687Z,8.87
2018-09-28T09:18:26.626Z,12.07
2018-09-28T09:20:56.475Z,8.63
2018-09-28T09:23:26.343Z,7.43
2018-09-28T09:25:56.284Z,7.70
2018-09-28T09:28:26.207Z,8.73
2018-09-28T09:30:56.133Z,5.87
2018-09-28T09:33:26.009Z,9.63
2018-09-28T09:35:55.869Z,8.17
2018-09-28T09:38:25.818Z,7.87
2018-09-28T09:40:55.605Z,8.23
2018-09-28T09:43:25.565Z,7.03
2018-09-28T09:45:55.481Z,7.13
2018-09-28T09:48:25.401Z,6.40
2018-09-28T09:50:55.333Z,5.00
2018-09-28T09:53:25.279Z,7.27
2018-09-28T09:55:55.115Z,7.23
2018-09-28T09:58:25.062Z,7.17
2018-09-28T10:01:00.088Z,7.27
2018-09-28T10:03:35.223Z,7.27
2018-09-28T10:06:05.093Z,7.87
2018-09-28T10:08:35.026Z,10.43
2018-09-28T10:11:05.063Z,6.47
2018-09-28T10:13:34.867Z,5.23
2018-09-28T10:16:04.801Z,6.60
2018-09-28T10:18:34.838Z,6.47
2018-09-28T10:21:04.737Z,5.00
2018-09-28T10:23:34.620Z,8.33
2018-09-28T10:26:04.452Z,8.50
2018-09-28T10:28:34.438Z,6.67
2018-09-28T10:31:04.436Z,5.57
2018-09-28T10:33:34.362Z,6.40
2018-09-28T10:36:04.261Z,7.70
2018-09-28T10:38:34.235Z,7.37
2018-09-28T10:41:04.162Z,2.37
2018-09-28T10:43:34.015Z,2.73
2018-09-28T10:46:04.018Z,3.47
2018-09-28T10:48:33.941Z,4.83
2018-09-28T10:51:03.836Z,4.67
2018-09-28T10:53:33.729Z,3.43
2018-09-28T10:56:03.713Z,4.67
2018-09-28T10:58:33.621Z,3.23
2018-09-28T11:01:03.547Z,4.37
2018-09-28T11:03:33.493Z,3.53
2018-09-28T11:06:03.287Z,2.50
2018-09-28T11:08:33.106Z,3.53
2018-09-28T11:11:02.834Z,2.90
2018-09-28T11:13:32.662Z,3.60
2018-09-28T11:16:02.462Z,3.03
2018-09-28T11:18:32.305Z,1.90
2018-09-28T11:21:02.106Z,2.70
2018-09-28T11:23:31.896Z,1.63
2018-09-28T11:26:01.797Z,4.00
2018-09-28T11:28:32.208Z,3.03
2018-09-28T11:31:02.003Z,3.57
2018-09-28T11:33:31.972Z,2.30
2018-09-28T11:36:01.985Z,2.40
2018-09-28T11:38:31.918Z,2.50
2018-09-28T11:41:01.812Z,5.57
2018-09-28T11:43:31.719Z,2.50
2018-09-28T11:46:01.670Z,4.43
2018-09-28T11:48:31.594Z,4.03
2018-09-28T11:51:01.575Z,2.80
2018-09-28T11:53:31.620Z,2.43
2018-09-28T11:56:01.577Z,4.90
2018-09-28T11:58:31.562Z,6.10
2018-09-28T12:01:01.524Z,3.67
2018-09-28T12:03:31.442Z,4.40
2018-09-28T12:06:01.315Z,3.17
2018-09-28T12:08:31.248Z,3.17
2018-09-28T12:11:01.201Z,2.37
2018-09-28T12:13:31.116Z,2.57
2018-09-28T12:16:00.953Z,9.07
2018-09-28T12:18:30.865Z,6.20
2018-09-28T12:21:00.903Z,3.83
2018-09-28T12:23:30.895Z,2.57
2018-09-28T12:26:00.843Z,2.83
2018-09-28T12:28:30.785Z,5.37
2018-09-28T12:31:00.644Z,4.27
2018-09-28T12:33:30.607Z,3.63
2018-09-28T12:36:00.522Z,2.60
2018-09-28T12:38:30.497Z,3.27
2018-09-28T12:41:00.435Z,2.77
2018-09-28T12:43:35.031Z,3.03
2018-09-28T12:46:01.234Z,2.67
2018-09-28T12:48:31.138Z,3.57
2018-09-28T12:51:01.051Z,4.10
2018-09-28T12:53:31.105Z,2.37
2018-09-28T12:56:01.093Z,3.83
2018-09-28T12:58:30.961Z,10.17
2018-09-28T13:01:01.056Z,4.13
2018-09-28T13:03:30.952Z,5.17
2018-09-28T13:06:00.805Z,3.77
2018-09-28T13:08:30.811Z,5.50
2018-09-28T13:11:00.563Z,3.50
2018-09-28T13:13:30.454Z,4.10
2018-09-28T13:16:00.495Z,5.80
2018-09-28T13:18:30.423Z,5.97
2018-09-28T13:21:00.404Z,4.20
2018-09-28T13:23:30.290Z,5.90
2018-09-28T13:26:00.195Z,5.63
2018-09-28T13:28:30.173Z,2.93
2018-09-28T13:31:00.178Z,4.93
2018-09-28T13:33:30.173Z,2.97
2018-09-28T13:36:00.063Z,5.00
2018-09-28T13:38:30.345Z,7.77
2018-09-28T13:41:00.175Z,5.03
2018-09-28T13:43:30.347Z,4.50
2018-09-28T13:46:00.340Z,3.97
2018-09-28T13:48:30.255Z,5.17
2018-09-28T13:51:00.042Z,4.77
2018-09-28T13:53:30.849Z,6.90
2018-09-28T13:56:00.798Z,5.50
2018-09-28T13:58:30.786Z,4.87
2018-09-28T14:01:00.641Z,5.67
2018-09-28T14:03:30.593Z,4.50
2018-09-28T14:06:00.517Z,4.40
2018-09-28T14:08:30.561Z,8.70
2018-09-28T14:11:00.465Z,5.23
2018-09-28T14:13:30.413Z,6.37
2018-09-28T14:16:00.309Z,5.00
2018-09-28T14:18:30.292Z,4.43
2018-09-28T14:21:00.202Z,4.37
2018-09-28T14:23:30.031Z,6.37
2018-09-28T14:26:00.313Z,4.03
2018-09-28T14:28:30.336Z,4.23
2018-09-28T14:31:00.294Z,3.77
2018-09-28T14:33:30.214Z,7.00
2018-09-28T14:36:00.114Z,5.70
2018-09-28T14:38:29.940Z,5.23
2018-09-28T14:40:59.862Z,3.67
2018-09-28T14:43:29.765Z,3.73
2018-09-28T14:45:59.661Z,4.17
2018-09-28T14:48:29.598Z,4.83
2018-09-28T14:50:59.446Z,3.80
2018-09-28T14:53:29.227Z,4.13
2018-09-28T14:55:59.080Z,5.17
2018-09-28T14:58:28.938Z,4.13
2018-09-28T15:00:58.786Z,3.70
2018-09-28T15:03:28.611Z,4.63
2018-09-28T15:05:58.449Z,4.07
2018-09-28T15:08:28.421Z,4.27
2018-09-28T15:10:58.447Z,5.03
2018-09-28T15:13:28.394Z,4.23
2018-09-28T15:15:58.326Z,3.33
2018-09-28T15:18:28.342Z,3.77
2018-09-28T15:20:58.322Z,5.53
2018-09-28T15:23:28.395Z,3.93
2018-09-28T15:25:58.330Z,3.33
2018-09-28T15:28:28.315Z,3.57
2018-09-28T15:30:58.464Z,3.77
2018-09-28T15:33:28.399Z,4.23
2018-09-28T15:35:58.310Z,3.73
2018-09-28T15:38:28.285Z,4.43
2018-09-28T15:40:58.799Z,7.80
2018-09-28T15:43:28.813Z,4.37
2018-09-28T15:45:58.765Z,4.47
2018-09-28T15:48:28.744Z,4.33
2018-09-28T15:50:58.712Z,4.97
2018-09-28T15:53:28.579Z,5.00
2018-09-28T15:55:58.400Z,6.50
2018-09-28T15:58:28.291Z,4.13
2018-09-28T16:00:58.285Z,4.73
2018-09-28T16:03:28.071Z,5.33
2018-09-28T16:05:58.016Z,7.73
2018-09-28T16:08:28.090Z,6.73
2018-09-28T16:10:57.979Z,6.17
2018-09-28T16:13:27.854Z,5.13
2018-09-28T16:15:57.733Z,5.20
2018-09-28T16:18:27.731Z,4.87
2018-09-28T16:20:57.743Z,5.80
2018-09-28T16:23:27.813Z,5.60
2018-09-28T16:25:57.855Z,7.13
2018-09-28T16:28:27.794Z,5.30
2018-09-28T16:30:57.834Z,5.03
2018-09-28T16:33:27.775Z,5.07
2018-09-28T16:35:57.641Z,5.27
2018-09-28T16:38:27.665Z,5.30
2018-09-28T16:40:57.623Z,8.10
2018-09-28T16:43:27.520Z,5.90
2018-09-28T16:45:57.541Z,5.07
2018-09-28T16:48:27.465Z,5.33
2018-09-28T16:50:57.455Z,6.37
2018-09-28T16:53:27.437Z,4.93
2018-09-28T16:55:57.225Z,6.80
2018-09-28T16:58:27.173Z,7.93
2018-09-28T17:00:58.691Z,8.43
2018-09-28T17:03:29.273Z,5.77
2018-09-28T17:05:59.405Z,8.87
2018-09-28T17:08:29.366Z,7.70
2018-09-28T17:10:59.245Z,9.57
2018-09-28T17:13:29.176Z,7.30
2018-09-28T17:15:59.024Z,13.17
2018-09-28T17:18:28.756Z,10.50
2018-09-28T17:20:58.925Z,14.53
2018-09-28T17:23:29.178Z,10.30
2018-09-28T17:25:59.352Z,15.67
2018-09-28T17:28:29.551Z,13.27
2018-09-28T17:30:59.700Z,14.40
2018-09-28T17:33:29.887Z,15.03
2018-09-28T17:35:59.948Z,9.23
2018-09-28T17:38:29.944Z,12.00
2018-09-28T17:41:00.083Z,11.97
2018-09-28T17:43:30.223Z,10.47
2018-09-28T17:46:00.935Z,10.00
2018-09-28T17:48:30.976Z,11.87
2018-09-28T17:51:01.128Z,9.33
2018-09-28T17:53:31.589Z,11.30
2018-09-28T17:56:01.746Z,11.17
2018-09-28T17:58:31.938Z,9.00
2018-09-28T18:01:02.035Z,9.43
2018-09-28T18:03:32.002Z,10.33
2018-09-28T18:06:02.396Z,10.97
2018-09-28T18:08:32.630Z,11.47
2018-09-28T18:11:06.103Z,11.13
2018-09-28T18:13:36.463Z,17.20
2018-09-28T18:16:06.805Z,11.97
2018-09-28T18:18:37.142Z,12.33
2018-09-28T18:21:07.550Z,10.77
2018-09-28T18:23:38.305Z,11.27
2018-09-28T18:26:08.635Z,11.43
2018-09-28T18:28:38.985Z,12.53
2018-09-28T18:31:09.418Z,11.80
2018-09-28T18:33:39.963Z,19.80
2018-09-28T18:36:10.333Z,18.83
2018-09-28T18:38:40.690Z,18.83
2018-09-28T18:41:11.182Z,16.03
2018-09-28T18:43:41.617Z,17.00
2018-09-28T18:46:12.038Z,15.37
2018-09-28T18:48:42.600Z,14.50
2018-09-28T18:51:13.602Z,17.97
2018-09-28T18:53:44.244Z,12.57
2018-09-28T18:56:14.642Z,12.27
2018-09-28T18:58:45.236Z,11.87
2018-09-28T19:01:15.771Z,14.97
2018-09-28T19:03:46.182Z,11.40
2018-09-28T19:06:16.708Z,11.33
2018-09-28T19:08:47.158Z,14.13
2018-09-28T19:11:17.708Z,14.17
2018-09-28T19:13:48.222Z,11.60
2018-09-28T19:16:19.387Z,14.17
2018-09-28T19:18:50.638Z,13.57
2018-09-28T19:21:22.805Z,13.50
2018-09-28T19:23:53.349Z,14.77
2018-09-28T19:26:23.864Z,14.43
2018-09-28T19:28:54.313Z,15.47
2018-09-28T19:31:24.831Z,15.30
2018-09-28T19:33:55.263Z,11.57
2018-09-28T19:36:25.903Z,11.17
2018-09-28T19:38:56.475Z,13.13
2018-09-28T19:41:27.655Z,12.60
2018-09-28T19:43:58.114Z,13.10
2018-09-28T19:46:29.515Z,16.70
2018-09-28T19:49:00.428Z,14.40
2018-09-28T19:51:31.205Z,12.63
2018-09-28T19:54:01.934Z,11.73
2018-09-28T19:56:32.360Z,10.83
2018-09-28T19:59:02.906Z,13.83
2018-09-28T20:01:33.391Z,9.57
2018-09-28T20:04:03.866Z,11.20
2018-09-28T20:06:34.442Z,12.13
2018-09-28T20:09:05.384Z,12.90
2018-09-28T20:11:35.904Z,13.93
2018-09-28T20:14:06.035Z,11.23
2018-09-28T20:16:36.329Z,10.77
2018-09-28T20:19:06.921Z,10.83
2018-09-28T20:21:38.101Z,13.50
2018-09-28T20:24:08.874Z,14.40
2018-09-28T20:26:39.673Z,15.40
2018-09-28T20:29:09.785Z,13.47
2018-09-28T20:31:40.545Z,11.23
2018-09-28T20:34:11.342Z,10.87
2018-09-28T20:36:42.333Z,11.30
2018-09-28T20:39:13.553Z,10.87
2018-09-28T20:41:43.540Z,13.67
2018-09-28T20:44:13.363Z,13.23
2018-09-28T20:46:43.219Z,10.43
2018-09-28T20:49:13.763Z,10.10
2018-09-28T20:51:43.788Z,12.47
2018-09-28T20:54:13.761Z,12.73
2018-09-28T20:56:45.021Z,11.00
2018-09-28T20:59:15.217Z,13.33
2018-09-28T21:01:45.324Z,9.97
2018-09-28T21:04:15.645Z,11.60
2018-09-28T21:06:46.401Z,11.23
2018-09-28T21:09:16.585Z,11.30
2018-09-28T21:11:46.365Z,10.13
2018-09-28T21:14:17.137Z,10.07
2018-09-28T21:16:47.409Z,10.80
2018-09-28T21:19:17.457Z,11.70
2018-09-28T21:21:47.945Z,11.17
2018-09-28T21:24:17.824Z,11.23
2018-09-28T21:26:48.217Z,13.53
2018-09-28T21:29:17.944Z,15.03
2018-09-28T21:31:48.357Z,11.80
2018-09-28T21:34:18.718Z,14.03
2018-09-28T21:36:48.375Z,11.53
2018-09-28T21:39:18.113Z,11.13
2018-09-28T21:41:48.044Z,11.20
2018-09-28T21:44:19.429Z,11.50
2018-09-28T21:46:49.587Z,11.57
2018-09-28T21:49:19.897Z,13.10
2018-09-28T21:51:56.173Z,12.07
2018-09-28T21:54:26.166Z,11.33
2018-09-28T21:56:56.957Z,11.87
2018-09-28T21:59:27.490Z,12.58
2018-09-28T22:01:58.017Z,13.38
2018-09-28T22:04:28.052Z,19.15
2018-09-28T22:06:58.650Z,16.17
2018-09-28T22:09:28.466Z,15.97
2018-09-28T22:11:58.420Z,15.13
2018-09-28T22:14:28.977Z,16.43
2018-09-28T22:16:58.686Z,14.60
2018-09-28T22:19:28.664Z,16.00
2018-09-28T22:21:58.876Z,17.20
2018-09-28T22:24:28.518Z,17.97
2018-09-28T22:26:58.837Z,17.67
2018-09-28T22:29:28.891Z,14.27
2018-09-28T22:31:58.685Z,15.83
2018-09-28T22:34:28.717Z,17.37
2018-09-28T22:36:59.061Z,19.83
2018-09-28T22:39:29.710Z,18.77
2018-09-28T22:42:00.357Z,17.70
2018-09-28T22:44:31.080Z,16.50
2018-09-28T22:47:02.079Z,15.73
2018-09-28T22:49:31.906Z,19.37
2018-09-28T22:52:02.297Z,16.97
2018-09-28T22:54:32.724Z,14.20
2018-09-28T22:57:04.403Z,15.83
2018-09-28T22:59:35.025Z,14.17
2018-09-28T23:02:04.750Z,15.67
2018-09-28T23:04:34.710Z,16.77
2018-09-28T23:07:05.636Z,13.13
2018-09-28T23:09:35.941Z,12.87
2018-09-28T23:12:05.965Z,13.60
2018-09-28T23:14:38.054Z,15.33
2018-09-28T23:17:08.940Z,15.33
2018-09-28T23:19:39.463Z,11.67
2018-09-28T23:22:09.417Z,12.83
2018-09-28T23:24:40.008Z,11.53
2018-09-28T23:27:10.241Z,13.83
2018-09-28T23:29:40.777Z,13.87
2018-09-28T23:32:12.395Z,11.90
2018-09-28T23:34:42.098Z,15.30
2018-09-28T23:37:11.825Z,12.07
2018-09-28T23:39:42.332Z,13.17
2018-09-28T23:42:13.337Z,12.23
2018-09-28T23:44:45.129Z,12.10
2018-09-28T23:47:14.816Z,13.00
2018-09-28T23:49:45.542Z,13.17
2018-09-28T23:52:15.782Z,13.77
2018-09-28T23:54:45.373Z,11.63
2018-09-28T23:57:15.513Z,13.10
2018-09-28T23:59:45.940Z,13.17
